Time;durP1;ratioP1;P1;durP2;ratioP2;P2;SDS_P1;SDS_P2;PMS_P1;PMS_P2;Temp;Humidity;BMP_temperature;BMP_pressure;BME280_temperature;BME280_humidity;BME280_pressure;Samples;Min_cycle;Max_cycle;Signal;HPM_P1;HPM_P2
2022/11/16 00:00:41;;;;;;;4.78;1.70;;;24.40;50.90;;;;;;5038205;28;20691;-56
2022/11/16 00:03:11;;;;;;;4.75;1.60;;;24.40;50.90;;;;;;5030321;28;20658;-53
2022/11/16 00:05:43;;;;;;;2.40;1.70;;;24.50;51.00;;;;;;5030947;28;20585;-60
2022/11/16 00:08:13;;;;;;;2.10;1.38;;;24.50;50.90;;;;;;5030045;28;20200;-55
2022/11/16 00:10:47;;;;;;;2.42;1.60;;;24.50;50.90;;;;;;5028017;28;20224;-54
2022/11/16 00:13:21;;;;;;;3.53;1.60;;;24.60;51.00;;;;;;5028081;28;20663;-54
2022/11/16 00:15:58;;;;;;;3.17;1.80;;;24.60;50.80;;;;;;5030630;28;20200;-55
2022/11/16 00:18:29;;;;;;;3.72;1.90;;;24.70;50.70;;;;;;5032142;28;20562;-50
2022/11/16 00:21:00;;;;;;;3.60;1.88;;;24.70;50.60;;;;;;5050145;28;20231;-60
2022/11/16 00:23:31;;;;;;;2.08;1.55;;;24.80;50.50;;;;;;5033002;28;20275;-48
2022/11/16 00:26:08;;;;;;;2.63;1.70;;;24.80;50.50;;;;;;5033098;28;20192;-47
2022/11/16 00:28:39;;;;;;;2.55;1.83;;;24.80;50.50;;;;;;5031391;28;20196;-46
2022/11/16 00:31:11;;;;;;;2.15;1.65;;;24.90;50.50;;;;;;5030971;28;20216;-46
2022/11/16 00:33:43;;;;;;;2.03;1.70;;;24.90;50.60;;;;;;5030150;28;20200;-50
2022/11/16 00:36:14;;;;;;;3.95;1.88;;;24.90;50.60;;;;;;5030774;28;20590;-53
2022/11/16 00:38:45;;;;;;;3.08;1.73;;;25.00;50.60;;;;;;5034199;28;20414;-54
2022/11/16 00:41:18;;;;;;;2.75;1.48;;;25.00;50.70;;;;;;5049762;28;20239;-46
2022/11/16 00:43:49;;;;;;;2.75;1.70;;;25.10;50.70;;;;;;5031204;28;20199;-54
2022/11/16 00:46:20;;;;;;;2.55;1.70;;;25.10;50.70;;;;;;5033036;28;20223;-47
2022/11/16 00:48:50;;;;;;;1.77;1.40;;;25.10;50.80;;;;;;5031323;28;20203;-47
2022/11/16 00:51:21;;;;;;;2.33;1.40;;;25.20;50.80;;;;;;5034476;28;20224;-47
2022/11/16 00:53:52;;;;;;;2.30;1.77;;;25.20;50.70;;;;;;5031209;28;20188;-52
2022/11/16 00:56:25;;;;;;;2.97;1.77;;;25.30;50.60;;;;;;5030281;28;20202;-48
2022/11/16 00:58:55;;;;;;;2.65;1.60;;;25.30;50.60;;;;;;5029567;28;20202;-47
2022/11/16 01:01:26;;;;;;;2.40;1.73;;;25.30;50.40;;;;;;5011885;28;20714;-49
2022/11/16 01:03:57;;;;;;;2.75;1.80;;;25.40;50.50;;;;;;5047534;28;20290;-55
2022/11/16 01:06:28;;;;;;;2.05;1.70;;;25.40;50.50;;;;;;5031814;28;20217;-55
2022/11/16 01:08:59;;;;;;;3.58;2.10;;;25.50;50.50;;;;;;5030151;28;20648;-47
2022/11/16 01:14:18;;;;;;;3.08;1.88;;;25.50;50.60;;;;;;5029893;28;20581;-51
2022/11/16 01:16:52;;;;;;;2.72;2.10;;;25.60;50.50;;;;;;5030621;28;20207;-49
2022/11/16 01:19:22;;;;;;;2.75;1.98;;;25.60;50.60;;;;;;5038528;28;20198;-51
2022/11/16 01:21:53;;;;;;;3.33;2.55;;;25.60;50.60;;;;;;5048223;28;20219;-49
2022/11/16 01:24:24;;;;;;;3.53;2.60;;;25.60;50.70;;;;;;5040555;28;20200;-59
2022/11/16 01:26:57;;;;;;;4.70;2.90;;;25.70;50.80;;;;;;5047561;28;20196;-52
2022/11/16 01:29:28;;;;;;;4.40;3.00;;;25.70;51.00;;;;;;5033032;28;20222;-59
2022/11/16 01:32:00;;;;;;;4.50;2.70;;;25.70;50.90;;;;;;5049766;28;20621;-54
2022/11/16 01:34:30;;;;;;;4.40;2.97;;;25.80;51.00;;;;;;5034628;28;20192;-49
2022/11/16 01:37:01;;;;;;;4.70;3.30;;;25.80;50.90;;;;;;5029124;28;20648;-51
2022/11/16 01:39:32;;;;;;;4.38;2.83;;;25.80;50.80;;;;;;5044252;28;20195;-52
2022/11/16 01:42:05;;;;;;;6.07;3.45;;;25.80;50.80;;;;;;5051591;28;20235;-50
2022/11/16 01:44:57;;;;;;;4.47;3.05;;;25.90;50.80;;;;;;5040618;28;20196;-54
2022/11/16 01:47:28;;;;;;;3.05;2.85;;;25.90;50.70;;;;;;5048721;28;20188;-48
2022/11/16 01:50:06;;;;;;;4.70;3.25;;;25.90;50.70;;;;;;5033171;28;20204;-47
2022/11/16 01:52:41;;;;;;;6.68;3.25;;;25.90;50.60;;;;;;5037565;28;20219;-58
2022/11/16 01:55:12;;;;;;;4.18;3.45;;;25.90;50.50;;;;;;5053927;28;20195;-53
2022/11/16 01:57:48;;;;;;;5.13;3.80;;;26.00;50.60;;;;;;5046671;28;20657;-48
2022/11/16 02:00:21;;;;;;;4.40;3.80;;;26.00;50.60;;;;;;5042006;28;20227;-50
2022/11/16 02:02:52;;;;;;;4.68;4.00;;;26.00;50.70;;;;;;5033331;28;20202;-52
2022/11/16 02:05:32;;;;;;;5.07;4.03;;;26.00;50.80;;;;;;5038467;28;20200;-49
2022/11/16 02:11:26;;;;;;;6.93;4.63;;;26.10;50.90;;;;;;5032839;28;20253;-47
2022/11/16 02:14:08;;;;;;;5.22;4.20;;;26.10;50.80;;;;;;5033141;28;20188;-52
2022/11/16 02:16:47;;;;;;;6.63;4.55;;;26.20;50.80;;;;;;5033082;28;20196;-52
2022/11/16 02:19:52;;;;;;;8.30;4.85;;;26.20;50.80;;;;;;5041423;28;20737;-48
2022/11/16 02:22:40;;;;;;;5.68;4.85;;;26.20;50.70;;;;;;5014949;28;20478;-48
2022/11/16 02:25:15;;;;;;;5.93;5.13;;;26.20;50.60;;;;;;5045180;28;20230;-47
2022/11/16 02:28:07;;;;;;;6.40;4.43;;;26.30;50.60;;;;;;5046805;28;20199;-54
2022/11/16 02:30:45;;;;;;;6.25;4.82;;;26.30;50.60;;;;;;5032720;28;20249;-47
2022/11/16 02:33:20;;;;;;;7.20;4.78;;;26.30;50.60;;;;;;5033151;28;20717;-55
2022/11/16 02:35:53;;;;;;;7.22;4.78;;;26.30;50.60;;;;;;5032914;28;20203;-54
2022/11/16 02:38:27;;;;;;;6.50;5.00;;;26.30;50.60;;;;;;5033369;28;20189;-49
2022/11/16 02:41:03;;;;;;;5.93;4.80;;;26.40;50.70;;;;;;5052467;28;20246;-56
2022/11/16 02:43:36;;;;;;;7.20;5.30;;;26.40;50.70;;;;;;5041099;28;20195;-50
2022/11/16 02:46:14;;;;;;;5.57;5.07;;;26.40;50.50;;;;;;5051058;28;20203;-52
2022/11/16 02:48:48;;;;;;;6.25;5.22;;;26.40;50.40;;;;;;5041645;28;20196;-46
2022/11/16 02:51:20;;;;;;;5.32;4.53;;;26.50;50.50;;;;;;5053173;28;20229;-46
2022/11/16 02:54:03;;;;;;;5.80;4.97;;;26.50;50.50;;;;;;5039879;28;20196;-46
2022/11/16 02:56:50;;;;;;;6.45;5.13;;;26.50;50.40;;;;;;5032508;28;20200;-50
2022/11/16 02:59:22;;;;;;;7.85;5.43;;;26.50;50.30;;;;;;5033990;28;20821;-48
2022/11/16 03:02:03;;;;;;;9.40;5.25;;;26.60;50.30;;;;;;5049159;28;20231;-47
2022/11/16 03:04:39;;;;;;;7.80;5.68;;;26.60;50.20;;;;;;5041949;28;20552;-55
2022/11/16 03:07:14;;;;;;;7.40;5.40;;;26.60;50.10;;;;;;5052031;28;20191;-59
2022/11/16 03:09:47;;;;;;;6.20;5.50;;;26.60;50.00;;;;;;5033242;28;20655;-53
2022/11/16 03:12:20;;;;;;;5.82;5.22;;;26.60;50.00;;;;;;5031719;28;20706;-55
2022/11/16 03:14:54;;;;;;;6.18;5.43;;;26.60;50.00;;;;;;5032458;28;20282;-49
2022/11/16 03:17:32;;;;;;;5.75;4.93;;;26.60;50.00;;;;;;5042742;28;20203;-50
2022/11/16 03:20:07;;;;;;;6.18;5.15;;;26.60;50.00;;;;;;5045216;28;20213;-49
2022/11/16 03:22:41;;;;;;;7.22;5.60;;;26.60;50.00;;;;;;5050315;28;20258;-54
2022/11/16 03:25:13;;;;;;;6.75;5.57;;;26.60;50.00;;;;;;5044254;28;20200;-52
2022/11/16 03:27:49;;;;;;;7.70;4.97;;;26.60;50.00;;;;;;5050617;28;20203;-53
2022/11/16 03:30:23;;;;;;;9.55;5.10;;;26.60;49.90;;;;;;5032371;28;20255;-51
2022/11/16 03:32:59;;;;;;;6.35;5.63;;;26.60;49.80;;;;;;5031638;28;20567;-50
2022/11/16 03:35:32;;;;;;;6.13;5.10;;;26.70;49.80;;;;;;5032885;28;20202;-53
2022/11/16 03:38:05;;;;;;;5.70;5.05;;;26.70;49.80;;;;;;5031302;28;20195;-57
2022/11/16 03:40:37;;;;;;;9.20;6.30;;;26.70;49.80;;;;;;5022588;28;20223;-58
2022/11/16 03:43:10;;;;;;;7.10;5.57;;;26.70;49.70;;;;;;5029270;28;20196;-47
2022/11/16 03:45:41;;;;;;;6.35;5.75;;;26.70;49.70;;;;;;5032287;28;20207;-50
2022/11/16 03:48:16;;;;;;;6.70;5.82;;;26.70;49.60;;;;;;5032349;28;20192;-55
2022/11/16 03:50:48;;;;;;;7.93;6.22;;;26.70;49.60;;;;;;5032221;28;20238;-47
2022/11/16 03:53:19;;;;;;;6.65;5.78;;;26.70;49.60;;;;;;5032282;28;20208;-54
2022/11/16 03:55:49;;;;;;;6.32;5.72;;;26.70;49.50;;;;;;5032413;28;20569;-49
2022/11/16 03:58:20;;;;;;;7.05;6.05;;;26.70;49.60;;;;;;5032321;28;20207;-57
2022/11/16 04:00:51;;;;;;;6.70;5.82;;;26.70;49.50;;;;;;5031990;28;20228;-55
2022/11/16 04:03:24;;;;;;;6.13;5.63;;;26.80;49.70;;;;;;5032309;28;20558;-53
2022/11/16 04:25:36;;;;;;;6.43;5.90;;;26.80;49.20;;;;;;5031759;28;20198;-52
2022/11/16 04:28:15;;;;;;;6.57;5.90;;;26.80;49.10;;;;;;5031129;28;20203;-51
2022/11/16 04:39:21;;;;;;;6.93;5.97;;;26.80;49.30;;;;;;5011734;28;20200;-47
2022/11/16 04:47:25;;;;;;;7.38;6.00;;;26.90;49.20;;;;;;5011499;28;20199;-56
2022/11/16 04:49:56;;;;;;;7.03;6.10;;;26.80;49.10;;;;;;5012055;28;20675;-51
2022/11/16 04:52:28;;;;;;;6.63;6.03;;;26.90;49.10;;;;;;5013980;28;20219;-50
2022/11/16 04:54:59;;;;;;;6.88;6.13;;;26.90;49.00;;;;;;5012082;28;20202;-51
2022/11/16 04:57:30;;;;;;;7.20;6.47;;;26.80;48.90;;;;;;5011977;28;20216;-51
2022/11/16 05:00:01;;;;;;;6.85;6.22;;;26.80;49.40;;;;;;5012445;28;20287;-59
2022/11/16 05:02:32;;;;;;;7.10;6.30;;;26.80;48.80;;;;;;5012061;28;20669;-47
2022/11/16 05:05:02;;;;;;;6.85;6.07;;;26.80;48.90;;;;;;5017335;28;20648;-56
2022/11/16 05:07:35;;;;;;;7.03;6.30;;;26.80;48.90;;;;;;5030704;28;20211;-51
2022/11/16 05:10:06;;;;;;;6.65;6.05;;;26.80;48.90;;;;;;5031125;28;20198;-57
2022/11/16 05:12:38;;;;;;;7.05;6.35;;;26.70;48.90;;;;;;5031085;28;20698;-55
2022/11/16 05:15:09;;;;;;;7.88;6.63;;;26.70;48.90;;;;;;5030785;28;20315;-52
2022/11/16 05:17:40;;;;;;;6.47;5.80;;;26.70;48.90;;;;;;5030930;28;20192;-49
2022/11/16 05:23:02;;;;;;;6.72;6.13;;;26.70;48.90;;;;;;5030946;28;20269;-51
2022/11/16 05:25:33;;;;;;;6.90;6.20;;;26.70;48.90;;;;;;5031040;28;20195;-57
2022/11/16 05:28:04;;;;;;;6.85;6.22;;;26.70;49.00;;;;;;5031472;28;20564;-46
2022/11/16 05:30:35;;;;;;;6.85;6.25;;;26.60;48.90;;;;;;5030948;28;20193;-57
2022/11/16 05:33:06;;;;;;;6.28;5.78;;;26.60;48.90;;;;;;5030546;28;20207;-55
2022/11/16 05:35:36;;;;;;;6.57;5.97;;;26.60;49.00;;;;;;5030719;28;20204;-56
2022/11/16 05:38:09;;;;;;;6.72;6.13;;;26.50;48.90;;;;;;5030463;28;20200;-54
2022/11/16 05:40:40;;;;;;;6.97;6.38;;;26.50;48.90;;;;;;5030605;28;20566;-58
2022/11/16 05:43:10;;;;;;;7.22;6.40;;;26.50;48.90;;;;;;5030346;28;20224;-53
2022/11/16 05:45:41;;;;;;;7.18;6.50;;;26.50;49.00;;;;;;5030839;28;20218;-51
2022/11/16 05:48:12;;;;;;;6.97;6.28;;;26.50;49.00;;;;;;5031013;28;20203;-52
2022/11/16 05:50:42;;;;;;;6.78;6.18;;;26.50;49.00;;;;;;5021311;28;20233;-56
2022/11/16 05:53:18;;;;;;;7.13;6.53;;;26.50;49.10;;;;;;5011112;28;20653;-55
2022/11/16 05:55:49;;;;;;;7.18;6.47;;;26.40;49.10;;;;;;5010791;28;20220;-58
2022/11/16 05:58:19;;;;;;;7.00;6.30;;;26.40;49.10;;;;;;5010866;28;20204;-53
2022/11/16 06:00:51;;;;;;;6.65;6.03;;;26.40;49.10;;;;;;5010923;28;20217;-53
2022/11/16 06:03:21;;;;;;;7.40;6.70;;;26.40;49.30;;;;;;5010465;28;20271;-52
2022/11/16 06:05:53;;;;;;;6.93;6.22;;;26.30;49.00;;;;;;5023519;28;20211;-49
2022/11/16 06:08:26;;;;;;;7.95;7.15;;;26.30;49.10;;;;;;5030573;28;20204;-52
2022/11/16 06:10:57;;;;;;;6.45;5.95;;;26.30;49.20;;;;;;5030537;28;20220;-47
2022/11/16 06:13:27;;;;;;;6.80;6.15;;;26.30;49.20;;;;;;5030758;28;20211;-54
2022/11/16 06:15:58;;;;;;;6.93;6.32;;;26.20;49.10;;;;;;5030473;28;20648;-55
2022/11/16 06:18:29;;;;;;;6.65;5.95;;;26.20;49.10;;;;;;5030637;28;20199;-53
2022/11/16 06:21:00;;;;;;;7.10;6.40;;;26.20;49.10;;;;;;5034071;28;20235;-54
2022/11/16 06:23:32;;;;;;;7.22;6.53;;;26.20;49.20;;;;;;5034034;28;20230;-51
2022/11/16 06:26:03;;;;;;;6.57;6.07;;;26.20;49.80;;;;;;5034309;28;20200;-54
2022/11/16 06:28:35;;;;;;;6.57;6.07;;;26.10;49.20;;;;;;5034373;28;20207;-57
2022/11/16 06:31:06;;;;;;;6.93;6.28;;;26.10;49.20;;;;;;5033784;28;20582;-51
2022/11/16 06:33:36;;;;;;;7.47;6.32;;;26.10;49.20;;;;;;5033707;28;20278;-53
2022/11/16 06:36:07;;;;;;;6.60;5.97;;;26.10;49.30;;;;;;5033980;28;20200;-53
2022/11/16 06:38:40;;;;;;;6.75;5.93;;;26.00;49.20;;;;;;5033990;28;20197;-53
2022/11/16 06:41:11;;;;;;;6.60;6.00;;;26.00;49.30;;;;;;5033775;28;20561;-54
2022/11/16 06:43:42;;;;;;;5.95;5.45;;;26.00;49.20;;;;;;5033893;28;20207;-57
2022/11/16 06:46:12;;;;;;;6.47;5.97;;;26.00;49.30;;;;;;5033407;28;20203;-53
2022/11/16 06:48:43;;;;;;;6.15;5.65;;;26.00;49.30;;;;;;5033464;28;20563;-50
2022/11/16 06:51:14;;;;;;;6.63;6.03;;;25.90;49.20;;;;;;5033660;28;20227;-50
2022/11/16 06:53:46;;;;;;;7.20;6.53;;;25.90;49.30;;;;;;5033909;28;20199;-56
2022/11/16 06:56:20;;;;;;;6.68;6.07;;;25.90;49.30;;;;;;5033911;28;20200;-54
2022/11/16 06:58:51;;;;;;;6.68;6.07;;;25.90;49.30;;;;;;5033490;28;20204;-58
2022/11/16 07:01:21;;;;;;;6.72;6.13;;;25.80;49.30;;;;;;5030360;28;20706;-57
2022/11/16 07:03:52;;;;;;;6.07;5.57;;;25.80;49.40;;;;;;5033585;28;20204;-54
2022/11/16 07:06:23;;;;;;;6.75;6.15;;;25.80;49.40;;;;;;5033701;28;20212;-55
2022/11/16 07:08:55;;;;;;;5.68;5.18;;;25.80;49.40;;;;;;5033336;28;20638;-55
2022/11/16 07:11:26;;;;;;;6.85;6.25;;;25.70;49.40;;;;;;5033354;28;20228;-54
2022/11/16 07:13:57;;;;;;;6.43;5.82;;;25.70;49.40;;;;;;5033125;28;20207;-55
2022/11/16 07:16:27;;;;;;;6.53;6.03;;;25.70;49.40;;;;;;5033123;28;20196;-52
2022/11/16 07:18:59;;;;;;;6.70;6.10;;;25.70;49.40;;;;;;5032993;28;20197;-56
2022/11/16 07:21:30;;;;;;;6.20;5.70;;;25.60;49.40;;;;;;5032882;28;20232;-55
2022/11/16 07:24:03;;;;;;;6.50;5.93;;;25.60;49.40;;;;;;5032817;28;20192;-52
2022/11/16 07:26:35;;;;;;;6.60;5.97;;;25.60;49.50;;;;;;5032975;28;20192;-59
2022/11/16 07:29:06;;;;;;;5.97;5.47;;;25.60;49.50;;;;;;5033101;28;20203;-54
2022/11/16 07:31:36;;;;;;;6.35;5.75;;;25.60;49.60;;;;;;5032212;28;20212;-54
2022/11/16 07:34:07;;;;;;;6.35;5.75;;;25.50;49.50;;;;;;5032273;28;20196;-56
2022/11/16 07:36:38;;;;;;;6.30;5.70;;;25.50;49.50;;;;;;5032869;28;20207;-56
2022/11/16 07:39:11;;;;;;;6.55;5.95;;;25.50;49.60;;;;;;5032376;28;20199;-52
2022/11/16 07:41:43;;;;;;;6.18;5.65;;;25.50;49.60;;;;;;5032507;28;20220;-56
2022/11/16 07:44:13;;;;;;;6.38;5.85;;;25.40;49.60;;;;;;5032175;28;20760;-55
2022/11/16 07:46:44;;;;;;;6.22;5.65;;;25.40;49.60;;;;;;5017126;28;20215;-52
2022/11/16 07:49:17;;;;;;;6.40;5.80;;;25.40;49.60;;;;;;5013050;28;20219;-51
2022/11/16 07:51:48;;;;;;;6.10;5.60;;;25.40;49.60;;;;;;5012684;28;20217;-56
2022/11/16 07:54:21;;;;;;;6.30;5.78;;;25.40;50.20;;;;;;5012688;28;20679;-52
2022/11/16 07:56:52;;;;;;;5.50;5.10;;;25.30;49.60;;;;;;5012765;28;20201;-52
2022/11/16 07:59:22;;;;;;;6.03;5.53;;;25.30;49.60;;;;;;5012702;28;20201;-51
2022/11/16 08:01:54;;;;;;;6.03;5.53;;;25.30;49.60;;;;;;5012885;28;20593;-55
2022/11/16 08:04:25;;;;;;;6.03;5.43;;;25.30;49.60;;;;;;5013348;28;20197;-55
2022/11/16 08:06:55;;;;;;;5.80;5.30;;;25.30;49.70;;;;;;5032517;28;20196;-55
2022/11/16 08:09:28;;;;;;;5.85;5.30;;;25.20;49.60;;;;;;5031782;28;20207;-54
2022/11/16 08:11:59;;;;;;;5.65;5.20;;;25.20;49.70;;;;;;5031951;28;20238;-51
2022/11/16 08:14:29;;;;;;;6.18;5.65;;;25.20;49.70;;;;;;5032062;28;20203;-54
2022/11/16 08:17:02;;;;;;;6.15;5.65;;;25.20;50.20;;;;;;5031725;28;20192;-56
2022/11/16 08:19:33;;;;;;;5.95;5.45;;;25.10;49.60;;;;;;5031732;28;20219;-58
2022/11/16 08:22:03;;;;;;;6.07;5.57;;;25.10;49.60;;;;;;5031323;28;20224;-53
2022/11/16 08:24:36;;;;;;;5.75;5.25;;;25.10;49.60;;;;;;5031735;28;20200;-56
2022/11/16 08:27:07;;;;;;;6.30;5.80;;;25.10;49.70;;;;;;5031842;28;20218;-55
2022/11/16 08:29:38;;;;;;;6.25;5.75;;;25.10;49.70;;;;;;5031776;28;20192;-52
2022/11/16 08:32:09;;;;;;;5.97;5.47;;;25.10;49.70;;;;;;5031829;28;20365;-48
2022/11/16 08:34:39;;;;;;;5.93;5.43;;;25.00;49.70;;;;;;5031873;28;20474;-55
2022/11/16 08:37:10;;;;;;;6.45;5.95;;;25.00;49.70;;;;;;5031426;28;20196;-55
2022/11/16 08:39:43;;;;;;;6.45;5.85;;;25.00;49.70;;;;;;5031360;28;20200;-55
2022/11/16 08:42:14;;;;;;;5.93;5.43;;;24.90;49.70;;;;;;5030896;28;20234;-52
2022/11/16 08:44:45;;;;;;;5.40;5.00;;;24.90;49.80;;;;;;5031694;28;20752;-52
2022/11/16 08:47:16;;;;;;;6.43;5.93;;;24.90;49.80;;;;;;5031520;28;20219;-53
2022/11/16 08:49:46;;;;;;;5.50;5.05;;;24.90;49.80;;;;;;5031644;28;20652;-52
2022/11/16 08:52:17;;;;;;;5.95;5.45;;;24.90;49.80;;;;;;5030850;28;20942;-56
2022/11/16 08:54:50;;;;;;;5.85;5.35;;;24.90;49.80;;;;;;5031368;28;20200;-56
2022/11/16 08:57:20;;;;;;;5.93;5.43;;;24.80;50.40;;;;;;5031394;28;20195;-52
2022/11/16 08:59:51;;;;;;;5.85;5.35;;;24.80;49.70;;;;;;5030953;28;20195;-59
2022/11/16 09:02:24;;;;;;;5.30;4.90;;;24.80;49.80;;;;;;5030992;28;20456;-59
2022/11/16 09:04:55;;;;;;;6.25;5.72;;;24.80;49.80;;;;;;5027798;28;20311;-59
2022/11/16 09:07:25;;;;;;;6.30;5.75;;;24.70;49.80;;;;;;5031033;28;20212;-56
2022/11/16 09:09:58;;;;;;;6.13;5.63;;;24.70;49.90;;;;;;5030903;28;20207;-56
2022/11/16 09:12:29;;;;;;;5.90;5.40;;;24.70;49.90;;;;;;5031342;28;20231;-58
2022/11/16 09:14:59;;;;;;;6.45;5.90;;;24.70;50.00;;;;;;5031615;28;20207;-59
2022/11/16 09:17:30;;;;;;;5.28;4.88;;;24.70;50.00;;;;;;5031098;28;20192;-59
2022/11/16 09:20:01;;;;;;;5.70;5.30;;;24.60;50.00;;;;;;5030935;28;20679;-57
2022/11/16 09:22:32;;;;;;;5.63;5.22;;;24.60;50.00;;;;;;5030704;28;20224;-60
2022/11/16 09:25:04;;;;;;;5.70;5.20;;;24.60;50.00;;;;;;5031237;28;20231;-59
2022/11/16 09:27:35;;;;;;;5.90;5.40;;;24.60;50.00;;;;;;5031057;28;20196;-59
2022/11/16 09:30:06;;;;;;;5.70;5.28;;;24.50;50.00;;;;;;5030825;28;20204;-60
2022/11/16 09:32:37;;;;;;;5.30;4.90;;;24.50;50.00;;;;;;5030613;28;20208;-53
2022/11/16 09:35:08;;;;;;;5.40;5.00;;;24.50;50.00;;;;;;5031082;28;20315;-60
2022/11/16 09:37:39;;;;;;;5.82;5.40;;;24.50;50.00;;;;;;5031028;28;20200;-52
2022/11/16 09:40:12;;;;;;;5.90;5.40;;;24.50;50.00;;;;;;5030494;28;20192;-53
2022/11/16 09:42:57;;;;;;;5.53;5.13;;;24.50;50.00;;;;;;5030269;28;20227;-52
2022/11/16 09:45:34;;;;;;;5.63;5.13;;;24.40;50.00;;;;;;5027047;28;20196;-52
2022/11/16 09:48:08;;;;;;;5.32;4.93;;;24.40;50.00;;;;;;5030860;28;20200;-51
2022/11/16 09:50:48;;;;;;;5.70;5.20;;;24.40;50.10;;;;;;5030351;28;20196;-56
2022/11/16 09:53:34;;;;;;;5.95;5.45;;;24.30;50.10;;;;;;5031977;28;20195;-56
2022/11/16 09:56:09;;;;;;;5.95;5.45;;;24.30;50.10;;;;;;5034456;28;20200;-52
2022/11/16 09:58:47;;;;;;;5.30;4.90;;;24.30;50.20;;;;;;5034063;28;20196;-57
2022/11/16 10:01:28;;;;;;;5.20;4.80;;;24.30;50.30;;;;;;5034020;28;20385;-47
2022/11/16 10:04:05;;;;;;;5.78;5.18;;;24.30;50.30;;;;;;5025324;28;20234;-52
2022/11/16 10:06:50;;;;;;;5.90;5.40;;;24.30;50.30;;;;;;5034271;28;20791;-52
2022/11/16 10:09:22;;;;;;;5.70;5.20;;;24.30;50.40;;;;;;5037498;28;20196;-57
2022/11/16 10:12:07;;;;;;;5.65;5.10;;;24.30;50.30;;;;;;5033216;28;20680;-48
2022/11/16 10:15:08;;;;;;;5.45;5.05;;;24.20;50.30;;;;;;5033763;28;20211;-53
2022/11/16 10:17:58;;;;;;;5.30;4.80;;;24.20;50.40;;;;;;5034071;28;20720;-51
2022/11/16 10:20:47;;;;;;;5.18;4.78;;;24.20;50.40;;;;;;5045354;28;20199;-56
2022/11/16 10:23:28;;;;;;;5.25;4.75;;;24.10;50.30;;;;;;5033383;28;20234;-53
2022/11/16 10:26:07;;;;;;;5.13;4.65;;;24.10;50.40;;;;;;5033218;28;20551;-52
2022/11/16 10:29:09;;;;;;;5.45;4.82;;;24.10;50.50;;;;;;5033956;28;20192;-53
2022/11/16 10:32:06;;;;;;;4.88;4.47;;;24.00;50.50;;;;;;5008031;28;20279;-49
2022/11/16 10:34:50;;;;;;;4.97;4.57;;;24.00;50.50;;;;;;5032529;28;20196;-53
2022/11/16 10:37:21;;;;;;;5.45;4.95;;;24.00;50.50;;;;;;5032342;28;20200;-52
2022/11/16 10:39:54;;;;;;;4.75;4.35;;;24.00;50.40;;;;;;5033173;28;20211;-52
2022/11/16 10:42:32;;;;;;;4.88;4.50;;;24.00;50.50;;;;;;5032767;28;20216;-56
2022/11/16 10:45:19;;;;;;;5.32;4.82;;;24.00;50.50;;;;;;5042895;28;20199;-57
2022/11/16 10:47:55;;;;;;;5.00;4.70;;;24.00;50.50;;;;;;5032824;28;20652;-54
2022/11/16 10:50:38;;;;;;;5.30;4.88;;;24.00;50.50;;;;;;5033102;28;20195;-59
2022/11/16 10:53:13;;;;;;;4.93;4.53;;;23.90;50.40;;;;;;5032070;28;20210;-58
2022/11/16 10:55:44;;;;;;;5.45;5.05;;;23.90;50.40;;;;;;5033241;28;20674;-56
2022/11/16 10:58:15;;;;;;;5.13;4.68;;;23.90;50.50;;;;;;5032161;28;20652;-59
2022/11/16 11:00:50;;;;;;;5.45;4.95;;;23.90;50.50;;;;;;5033037;28;20295;-55
2022/11/16 11:03:32;;;;;;;5.20;4.70;;;23.80;50.50;;;;;;5032625;28;20226;-57
2022/11/16 11:06:03;;;;;;;5.40;4.97;;;23.80;50.50;;;;;;5031486;28;20207;-58
2022/11/16 11:08:34;;;;;;;5.28;4.88;;;23.80;50.60;;;;;;5033001;28;20202;-55
2022/11/16 11:14:03;;;;;;;5.68;5.18;;;23.80;50.60;;;;;;5032084;28;20193;-52
2022/11/16 11:16:35;;;;;;;5.00;4.60;;;23.80;50.60;;;;;;5032447;28;20203;-54
2022/11/16 11:19:26;;;;;;;5.30;4.90;;;23.70;50.50;;;;;;5032519;28;20202;-58
2022/11/16 11:22:01;;;;;;;4.85;4.45;;;23.70;50.50;;;;;;5026663;28;20216;-52
2022/11/16 11:24:32;;;;;;;5.15;4.75;;;23.70;50.50;;;;;;5022672;28;20223;-52
2022/11/16 11:27:06;;;;;;;5.07;4.68;;;23.70;50.50;;;;;;5031675;28;20193;-57
2022/11/16 11:29:41;;;;;;;5.60;5.20;;;23.70;50.50;;;;;;5032187;28;20196;-58
2022/11/16 11:32:20;;;;;;;5.10;4.70;;;23.70;50.60;;;;;;5032069;28;20208;-59
2022/11/16 11:34:53;;;;;;;4.97;4.60;;;23.70;50.60;;;;;;5031846;28;20571;-55
2022/11/16 11:37:27;;;;;;;5.25;4.85;;;23.60;50.60;;;;;;5031420;28;20199;-57
2022/11/16 11:40:22;;;;;;;5.18;4.78;;;23.60;50.60;;;;;;5030875;28;20192;-50
2022/11/16 11:42:58;;;;;;;5.22;4.82;;;23.60;50.60;;;;;;5012831;28;20197;-53
2022/11/16 11:45:41;;;;;;;5.53;5.00;;;23.50;50.50;;;;;;5028629;28;20234;-56
2022/11/16 11:48:30;;;;;;;5.07;4.57;;;23.50;50.60;;;;;;5012408;28;20205;-59
2022/11/16 11:51:04;;;;;;;5.13;4.63;;;23.50;50.70;;;;;;5012995;28;20620;-57
2022/11/16 11:53:53;;;;;;;4.65;4.25;;;23.50;50.60;;;;;;5012525;28;20227;-58
2022/11/16 11:56:24;;;;;;;4.65;4.35;;;23.50;50.60;;;;;;5012242;28;20205;-56
2022/11/16 11:58:55;;;;;;;5.28;4.78;;;23.50;50.60;;;;;;5011988;28;20200;-59
2022/11/16 12:02:03;;;;;;;4.88;4.35;;;23.50;50.60;;;;;;5011764;28;20213;-60
2022/11/16 12:05:07;;;;;;;4.72;4.32;;;23.50;50.60;;;;;;5008467;28;20644;-58
2022/11/16 12:08:05;;;;;;;5.30;4.90;;;23.40;50.60;;;;;;5007231;28;20195;-57
2022/11/16 12:10:47;;;;;;;4.68;4.28;;;23.40;50.60;;;;;;5032152;28;20203;-59
2022/11/16 12:13:33;;;;;;;5.05;4.65;;;23.40;50.70;;;;;;5032079;28;20577;-58
2022/11/16 12:16:13;;;;;;;5.32;4.85;;;23.30;50.70;;;;;;5031598;28;20211;-60
2022/11/16 12:19:02;;;;;;;4.70;4.30;;;23.30;50.70;;;;;;5031975;28;20207;-57
2022/11/16 12:21:47;;;;;;;4.70;4.30;;;23.30;50.70;;;;;;5031410;28;20220;-58
2022/11/16 12:24:31;;;;;;;4.88;4.47;;;23.30;50.70;;;;;;5032281;28;20228;-59
2022/11/16 12:27:14;;;;;;;4.90;4.50;;;23.30;50.70;;;;;;5032000;28;20203;-59
2022/11/16 12:29:52;;;;;;;4.65;4.35;;;23.30;50.70;;;;;;5031796;28;20651;-54
2022/11/16 12:32:41;;;;;;;4.70;4.30;;;23.30;50.70;;;;;;5031772;28;20691;-58
2022/11/16 12:35:35;;;;;;;4.88;4.47;;;23.20;50.70;;;;;;5031740;28;20220;-58
2022/11/16 12:38:23;;;;;;;4.97;4.57;;;23.30;50.70;;;;;;5031420;28;20203;-57
2022/11/16 12:41:06;;;;;;;4.95;4.55;;;23.20;50.70;;;;;;5031607;28;20222;-55
2022/11/16 12:43:46;;;;;;;4.95;4.55;;;23.20;50.70;;;;;;5031675;28;20228;-52
2022/11/16 12:46:23;;;;;;;4.97;4.57;;;23.20;50.80;;;;;;5031884;28;20202;-56
2022/11/16 12:49:09;;;;;;;5.03;4.63;;;23.10;50.70;;;;;;5031663;28;20196;-59
2022/11/16 12:51:53;;;;;;;5.10;4.72;;;23.10;50.80;;;;;;5031533;28;20227;-56
2022/11/16 12:54:48;;;;;;;4.55;4.25;;;23.10;50.80;;;;;;5031051;28;20226;-56
2022/11/16 12:57:25;;;;;;;4.72;4.32;;;23.10;50.80;;;;;;5031657;28;20230;-57
2022/11/16 13:00:07;;;;;;;4.70;4.40;;;23.10;50.80;;;;;;5031950;28;20208;-60
2022/11/16 13:02:54;;;;;;;4.80;4.40;;;23.00;51.30;;;;;;5031568;28;20230;-56
2022/11/16 13:05:29;;;;;;;4.57;4.22;;;23.10;50.80;;;;;;5031136;28;20565;-59
2022/11/16 13:08:06;;;;;;;5.30;4.80;;;23.00;50.70;;;;;;5031320;28;20195;-56
2022/11/16 13:10:44;;;;;;;4.80;4.40;;;23.00;50.70;;;;;;5031310;28;20214;-58
2022/11/16 13:13:24;;;;;;;4.97;4.57;;;23.00;50.70;;;;;;5031760;28;20204;-59
2022/11/16 13:15:57;;;;;;;5.05;4.65;;;23.00;50.70;;;;;;5031549;28;20230;-59
2022/11/16 13:18:30;;;;;;;4.30;4.00;;;23.00;50.80;;;;;;5031216;28;20203;-58
2022/11/16 13:21:07;;;;;;;4.78;4.47;;;23.00;50.80;;;;;;5030807;28;20247;-60
2022/11/16 13:23:47;;;;;;;4.63;4.22;;;23.00;50.90;;;;;;5027192;28;20597;-59
2022/11/16 13:26:30;;;;;;;4.57;4.28;;;22.90;50.80;;;;;;5030523;28;20428;-59
2022/11/16 13:29:11;;;;;;;4.20;3.90;;;22.90;50.80;;;;;;5033920;28;20667;-57
2022/11/16 13:31:49;;;;;;;4.50;4.10;;;22.90;50.80;;;;;;5034797;28;20586;-58
2022/11/16 13:34:25;;;;;;;4.63;4.32;;;22.90;50.90;;;;;;5035067;28;20678;-59
2022/11/16 13:36:55;;;;;;;4.50;4.20;;;22.80;50.80;;;;;;5017337;28;20535;-59
2022/11/16 13:40:09;;;;;;;4.50;4.20;;;22.80;50.90;;;;;;5034645;28;20558;-58
2022/11/16 13:42:58;;;;;;;4.25;3.95;;;22.80;50.90;;;;;;5020351;28;20590;-58
2022/11/16 13:45:36;;;;;;;4.80;4.45;;;22.80;50.80;;;;;;5017301;28;20220;-57
2022/11/16 13:48:17;;;;;;;4.72;4.32;;;22.80;50.80;;;;;;5014599;28;20671;-57
2022/11/16 13:50:55;;;;;;;4.72;4.30;;;22.80;50.80;;;;;;5014811;28;20699;-57
2022/11/16 13:53:32;;;;;;;4.88;4.47;;;22.80;50.90;;;;;;5014677;28;20197;-57
2022/11/16 13:56:04;;;;;;;4.65;4.32;;;22.70;50.90;;;;;;5015112;28;20200;-58
2022/11/16 13:58:38;;;;;;;4.70;4.30;;;22.80;51.00;;;;;;5015040;28;20200;-57
2022/11/16 14:01:17;;;;;;;4.65;4.32;;;22.70;51.00;;;;;;5015075;28;20216;-58
2022/11/16 14:03:50;;;;;;;5.20;4.70;;;22.70;51.00;;;;;;5014925;28;20962;-57
2022/11/16 14:06:52;;;;;;;4.65;4.25;;;22.70;51.00;;;;;;5031614;28;20255;-58
2022/11/16 14:09:44;;;;;;;4.70;4.30;;;22.70;51.00;;;;;;5029195;28;20196;-59
2022/11/16 14:12:59;;;;;;;4.38;4.07;;;22.60;51.00;;;;;;5034946;28;20692;-60
2022/11/16 14:15:36;;;;;;;4.38;4.07;;;22.60;51.00;;;;;;5034518;28;20207;-59